East Peoria, IL

9:46 AM CDT on May 27, 2015 (GMT -0500)
Lincoln | | Change Station
CLOSE
Current Station
Airport
Location: Lincoln,
Elevation: 597 ft
Nearby Weather Stations

Elev 597 ft 40.16 °N, 89.34 °W | Updated 11 minutes ago

Partly Cloudy
Partly Cloudy
72 °F
Feels Like 72 °F
N
6
Wind Variable Wind from SW

Today
High -- | Low -- °F
--% Chance of Precip.
Yesterday
High -- | Low -- °F
Precip. -- in
5:32 AM 8:19 PM
Waxing Gibbous, 68% visible
Pressure 30.00 in
Visibility 10.0 miles
Clouds Mostly Cloudy 1800 ft
Overcast 2200 ft
Dew Point 64 °F
Humidity 78%
Rainfall 0.00 in
Snow Depth Not available.
UV 2 out of 12
Pollen 9.20 out of 12
Air Quality Not available.
Flu Activity Sporadic
METAR KAAA 271435Z AUTO 22005KT 10SM BKN018 OVC022 22/18 A3000 RMK AO2 T02200180

More Conditions Fewer Conditions

Pressure 30.00 in
Visibility 10.0 miles
Clouds Mostly Cloudy 1800 ft
Overcast 2200 ft
Dew Point 64 °F
Humidity 78%
Rainfall 0.00 in
Snow Depth Not available.
UV 2 out of 12
Pollen 9.20 out of 12
Air Quality Not available.
Flu Activity Sporadic
METAR KAAA 271435Z AUTO 22005KT 10SM BKN018 OVC022 22/18 A3000 RMK AO2 T02200180

More Conditions Fewer Conditions

10-Day Weather Forecast

Almanac

Astronomy

May. 27, 2015 Rise Set
Actual Time
Civil Twilight
Nautical Twilight
Astronomical Twilight
Moon
Length of Visible Light
Length of Day
Tomorrow will be .
, % of the Moon is Illuminated

Today's Extremes

State Highs State Lows

Community

WunderPhotos

Upload Photos

1,824,690 photos uploaded!

WunderBlogs® & News

Nearby

Air Quality

  Air Quality AQ Index Pollutant
Not available.

Snow Depth

Station Depth Elevation

Earthquake Activity

City Distance Mag. Time & Date
Minimum magnitude displayed is 2.5.

Coastal Water Temperatures

Place Temperature

Stations

Nearby Weather Stations

Station Location Temp. Windchill Dew Point Humidity Wind Precip. Elev Updated Type